createdAt,value
2019-05-07T00:00:03.336Z,0
2019-05-07T00:05:02.787Z,0
2019-05-07T00:10:03.439Z,0
2019-05-07T00:15:04.661Z,0
2019-05-07T00:20:03.198Z,0
2019-05-07T00:25:03.223Z,0
2019-05-07T00:30:02.984Z,0
2019-05-07T00:35:02.597Z,0
2019-05-07T00:40:03.029Z,0
2019-05-07T00:45:14.064Z,0
2019-05-07T00:50:03.409Z,0
2019-05-07T00:55:03.059Z,0
2019-05-07T01:00:02.555Z,0
2019-05-07T01:05:03.210Z,0
2019-05-07T01:10:02.785Z,0
2019-05-07T01:15:03.231Z,0
2019-05-07T01:20:03.022Z,0
2019-05-07T01:25:02.625Z,0
2019-05-07T01:30:03.060Z,0
2019-05-07T01:35:02.614Z,0
2019-05-07T01:40:03.252Z,0
2019-05-07T01:45:02.763Z,0
2019-05-07T01:50:03.284Z,0
2019-05-07T01:55:03.377Z,0
2019-05-07T02:00:02.870Z,0
2019-05-07T02:05:03.360Z,0
2019-05-07T02:10:02.970Z,0
2019-05-07T02:15:02.874Z,0
2019-05-07T02:20:03.345Z,0
2019-05-07T02:25:03.287Z,0
2019-05-07T02:30:04.123Z,0
2019-05-07T02:35:04.026Z,0
2019-05-07T02:40:04.457Z,0
2019-05-07T02:45:04.115Z,0
2019-05-07T02:50:03.273Z,0
2019-05-07T02:55:03.949Z,0
2019-05-07T03:00:04.527Z,0
2019-05-07T03:05:05.127Z,0
2019-05-07T03:10:03.787Z,0
2019-05-07T03:15:04.466Z,1
2019-05-07T03:20:03.335Z,2
2019-05-07T03:25:03.409Z,3
2019-05-07T03:30:04.386Z,8
2019-05-07T03:35:06.593Z,17
2019-05-07T03:40:04.149Z,41
2019-05-07T03:45:03.872Z,61
2019-05-07T03:50:03.716Z,115
2019-05-07T03:55:03.770Z,157
2019-05-07T04:00:04.350Z,286
2019-05-07T04:05:04.279Z,369
2019-05-07T04:10:04.403Z,450
2019-05-07T04:15:03.612Z,496
2019-05-07T04:20:04.497Z,736
2019-05-07T04:25:04.368Z,853
2019-05-07T04:30:03.840Z,963
2019-05-07T04:35:03.849Z,1000
2019-05-07T04:40:03.349Z,987
2019-05-07T04:45:04.277Z,959
2019-05-07T04:50:03.780Z,873
2019-05-07T04:55:03.978Z,1000
2019-05-07T05:00:03.634Z,1000
2019-05-07T05:05:03.516Z,1000
2019-05-07T05:10:03.112Z,1000
2019-05-07T05:15:02.530Z,1000
2019-05-07T05:20:03.526Z,1000
2019-05-07T05:25:03.245Z,1000
2019-05-07T05:30:03.112Z,2000
2019-05-07T05:35:03.317Z,2000
2019-05-07T05:40:08.511Z,2000
2019-05-07T05:45:03.344Z,2000
2019-05-07T05:50:02.911Z,2000
2019-05-07T05:55:03.423Z,2000
2019-05-07T06:00:02.822Z,2000
2019-05-07T06:05:02.482Z,3000
2019-05-07T06:10:03.003Z,3000
2019-05-07T06:15:02.510Z,3000
2019-05-07T06:20:03.133Z,3000
2019-05-07T06:25:02.715Z,3000
2019-05-07T06:30:05.073Z,3000
2019-05-07T06:35:03.232Z,3000
2019-05-07T06:40:02.764Z,4000
2019-05-07T06:45:03.244Z,5000
2019-05-07T06:50:03.211Z,5000
2019-05-07T06:55:03.331Z,0
2019-05-07T19:55:00.841Z,0
2019-05-07T19:55:04.720Z,0
2019-05-07T20:00:02.488Z,0
2019-05-07T20:05:03.645Z,0
2019-05-07T20:10:03.138Z,0
2019-05-07T20:15:02.863Z,0
2019-05-07T20:20:03.454Z,0
2019-05-07T20:25:15.186Z,0
2019-05-07T20:30:03.353Z,0
2019-05-07T20:35:02.914Z,0
2019-05-07T20:40:03.435Z,0
2019-05-07T20:45:03.140Z,0
2019-05-07T20:50:02.647Z,0
2019-05-07T20:55:03.174Z,0
2019-05-07T21:00:02.896Z,0
2019-05-07T21:05:03.079Z,0
2019-05-07T21:10:02.651Z,0
2019-05-07T21:15:03.421Z,0
2019-05-07T21:22:13.068Z,0
2019-05-07T21:25:02.844Z,0
2019-05-07T21:30:03.400Z,0
2019-05-07T21:35:02.841Z,0
2019-05-07T21:40:03.379Z,0
2019-05-07T21:45:02.881Z,0
2019-05-07T21:50:03.478Z,0
2019-05-07T21:55:03.060Z,0
2019-05-07T22:00:02.595Z,0
2019-05-07T22:05:03.129Z,0
2019-05-07T22:10:02.643Z,0
2019-05-07T22:15:10.261Z,0
2019-05-07T22:20:03.142Z,0
2019-05-07T22:25:05.299Z,0
2019-05-07T22:30:02.870Z,0
2019-05-07T22:35:03.357Z,0
2019-05-07T22:40:02.979Z,0
2019-05-07T22:45:02.918Z,0
2019-05-07T22:50:02.934Z,0
2019-05-07T22:55:02.469Z,0
2019-05-07T23:00:07.544Z,0
2019-05-07T23:05:03.114Z,0
2019-05-07T23:10:02.987Z,0
2019-05-07T23:15:02.870Z,0
2019-05-07T23:20:03.439Z,0
2019-05-07T23:25:02.983Z,0
2019-05-07T23:30:02.768Z,0
2019-05-07T23:35:03.321Z,0
2019-05-07T23:40:03.095Z,0
2019-05-07T23:45:02.161Z,0
2019-05-07T23:50:02.651Z,0
2019-05-07T23:55:03.150Z,0
